Language selection

Weather shortcuts

Dixon Entrance West - east of Langara: Past 24 Hour Conditions

 

South Nomad - 46036

09:00 PM PDT 21 May 2024Buoy position: 48.35N 133.95W
Disclaimer

This table is a summary of hourly weather conditions for the past 24 hours.
Please note that these observations might not always be representative of weather conditions over their associated marine area.

Date / Time
(PDT)
Wind(knots) Wave height(m) Wave period(s) Pressure(kPa) Air tempC) Water tempC)
21 May 2024
21:00 NNW 12 gusts 13 1.70 8.8 102.6 N/A 11
20:00 NNW 12 gusts 15 1.90 10.2 102.6 N/A 11
19:00 NNW 12 gusts 15 1.80 9.5 102.6 N/A 11
18:00 NNW 12 gusts 14 1.80 16.0 102.6 N/A 11
17:00 NNW 12 gusts 15 1.80 9.8 102.5 N/A 11
16:00 NNW 11 gusts 13 1.90 8.5 102.5 N/A 11
15:00 N 12 gusts 14 1.80 6.4 102.5 N/A 11
14:00 N 8 gusts 12 1.90 6.0 102.4 N/A 11
13:00 N 10 gusts 14 1.90 9.1 102.4 N/A 11
12:00 NNW 12 gusts 15 1.90 9.1 102.3 N/A 10
11:00 NW 13 gusts 16 2.10 5.8 102.3 N/A 10
10:00 NW 15 gusts 18 2.20 9.1 102.3 N/A 10
9:00 NW 14 gusts 17 2.20 6.7 102.2 N/A 10
8:00 NW 17 gusts 20 2.20 6.4 102.2 N/A 10
7:00 WNW 16 gusts 19 2.10 10.7 102.2 N/A 10
6:00 WNW 16 gusts 18 2.00 10.2 102.2 N/A 10
5:00 WNW 16 gusts 21 2.00 10.7 102.2 N/A 10
4:00 WNW 18 gusts 22 1.90 16.0 102.2 N/A 10
3:00 WNW 18 gusts 22 1.80 5.8 102.2 N/A 10
2:00 WNW 17 gusts 21 1.80 10.7 102.2 N/A 10
1:00 WNW 17 gusts 21 1.80 11.1 102.2 N/A 11
0:00 W 16 gusts 20 1.70 5.1 102.2 N/A 11
20 May 2024
23:00 W 17 gusts 21 1.70 17.1 102.3 N/A 11
22:00 WSW 17 gusts 21 1.80 17.1 102.3 N/A 11
21:00 WSW 16 gusts 18 1.60 17.1 102.3 N/A 11

Zoom-in to make a selection

Map of Pacific - North Coast marine weather areas Middle Nomad - 46004 South Nomad - 46036 Dixon Entrance Central - 46145 South Moresby - 46147 Nanakwa Shoal - 46181 North Hecate Strait - 46183 North Nomad - 46184 South Hecate Strait - 46185 West Sea Otter - 46204 West Dixon Entrance - 46205 East Dellwood - 46207 West Moresby - 46208 Sartine Island Cape St.James Kindakun Rocks Langara Island Masset Municipal Airport Rose Spit Sandspit Airport Bella Bella Airport Bella Coola Airport Bonilla Island Cathedral Point Cumshewa Island Grey Islet Holland Rock Lucy Islands Lightstation Prince Rupert Airport
Legend:
buoy Buoy
land station Land Station

Pacific - North Coast Area

Another Region

Date modified: